Atlantic - Newfoundland: Past 24 Hour Conditions

 

J.A. Douglas McCurdy Sydney Airport

07:00 AM ADT 20 August 2014
This table is a summary of hourly weather conditions for the past 24 hours.
Date / Time
(ADT)
Wind(knots) Conditions Visibility(km) Pressure(kPa) Air tempC) Relative humidity(%) Dew pointC) Humidex
20 August 2014
7:00 WSW 8 Light Rainshower 24 100.9 17 88 15 *
6:00 SW 11 Mostly Cloudy 24 100.8 17 86 14 *
5:00 WSW 12 Mostly Cloudy 24 100.8 17 86 15 *
4:00 WSW 13 Mostly Cloudy 24 100.8 17 87 15 *
3:00 WSW 9 Mostly Cloudy 24 100.7 17 90 15 *
2:00 WSW 11 Mostly Cloudy 24 100.7 17 89 15 *
1:00 SW 11 gust 17 Mostly Cloudy 24 100.7 17 87 15 *
0:00 WSW 11 Mostly Cloudy 24 100.7 17 89 15 *
19 August 2014
23:00 SW 11 Mostly Cloudy 24 100.7 17 89 15 *
22:00 SW 10 Mostly Cloudy 24 100.7 17 90 15 *
21:00 SW 8 Mostly Cloudy 24 100.7 16 91 15 *
20:00 SW 7 Mostly Cloudy 24 100.6 17 85 15 *
19:00 WSW 11 Mostly Cloudy 24 100.6 18 79 15 *
18:00 W 9 Mostly Cloudy 24 100.5 19 79 16 *
17:00 W 15 gust 24 Mostly Cloudy 24 100.5 20 73 15 *
16:00 W 18 Mostly Cloudy 24 100.4 21 69 15 *
15:00 W 15 gust 21 Mostly Cloudy 24 100.3 22 69 16 26
14:00 W 15 Mostly Cloudy 24 100.3 20 76 16 25
13:00 W 10 Rainshower 3 100.3 17 93 16 *
12:00 W 13 gust 19 Light Rainshower 24 100.3 19 85 16 *
11:00 WSW 18 Light Rainshower 13 100.2 19 82 16 *
10:00 WSW 11 gust 17 Partly Cloudy 24 100.2 19 78 15 *
9:00 WSW 9 Partly Cloudy 24 100.1 18 85 15 *
8:00 W 9 Partly Cloudy 16 100.1 16 94 15 *
7:00 WSW 6 Fog Patches 13 100.0 14 99 13 *
 
Map of Atlantic - Newfoundland marine weather areas Southwestern Grand Banks - 44138 Banquereau - 44139 Tail of the Bank - 44140 Nickerson Bank - 44251 Northeast Burgeo Bank - 44255 Blanc-Sablon Airport Cap Whittle Chevery Natashquan Airport Heath Point Miscou Island Grand Étang Ingonish Beach North Mountain St.Paul Island J.A. Douglas McCurdy Sydney Airport Charlottetown Airport East Point North Cape Argentia Bonavista Burgeo Cape Race Corner Brook Daniel's Harbour Englee Ferolle Point La Scie Port aux Basques Rocky Harbour Sagona Island St. Anthony Airport St. John's Int'l Airport St. Lawrence Stephenville Airport Twillingate Winterland Wreckhouse Cartwright Airport Mary's Harbour Grates Cove Pool's Island Marticot Island Long Pond Îles de la Madeleine Airport
Legend: buoyBuoy land stationLand Station